Terminal Aerodrome Forecast
Issued by NWS

Home | Current Version | Previous Version | Graphics & Text | Print | Product List | Glossary On
Versions: 1 2 3 4 5 6 7 8 9 10 11 12 13 14 15 16 17 18 19 20 21 22 23
000
FTUS41 KCLE 291123
TAFFDY
TAF
KFDY 291123Z 2912/3012 25008KT P6SM SKC
     FM291700 23013KT P6SM FEW200
     FM292100 24012KT P6SM VCTS SCT035CB BKN100
     FM300000 24008KT P6SM SCT150=

USA.gov is the U.S. government's official web portal to all federal, state and local government web resources and services.